Time;durP1;ratioP1;P1;durP2;ratioP2;P2;SDS_P1;SDS_P2;PMS_P1;PMS_P2;Temp;Humidity;BMP_temperature;BMP_pressure;BME280_temperature;BME280_humidity;BME280_pressure;Samples;Min_cycle;Max_cycle;Signal;HPM_P1;HPM_P2
2021/05/19 09:39:00;;;;;;;4.10;1.08;;;;;;;32.21;17.91;99822.13;5078303;27;22257;-81
2021/05/19 09:41:37;;;;;;;2.47;1.07;;;;;;;33.78;15.11;99824.63;5075570;28;20056;-83
2021/05/19 11:17:53;;;;;;;6.43;0.93;;;;;;;17.92;42.93;99860.19;6115976;23;20083;-80
2021/05/19 11:20:24;;;;;;;1.77;0.40;;;;;;;19.36;37.82;99865.34;6035827;23;20024;-78
2021/05/19 11:22:51;;;;;;;1.38;0.30;;;;;;;20.74;34.42;99882.38;6157214;23;20087;-77
2021/05/19 11:36:41;;;;;;;0.60;0.25;;;;;;;23.29;29.02;99918.16;5024670;27;20500;-81
2021/05/19 11:43:32;;;;;;;6.10;0.50;;;;;;;22.27;30.10;99919.25;5018340;28;20040;-82
2021/05/19 11:45:59;;;;;;;0.82;0.63;;;;;;;20.84;31.91;99919.09;5018304;28;20065;-77
2021/05/19 11:48:29;;;;;;;1.63;0.60;;;;;;;21.60;31.35;99928.78;5035060;28;20053;-80
2021/05/19 11:51:26;;;;;;;0.63;0.43;;;;;;;21.41;31.84;99932.41;5034954;28;20137;-78
2021/05/19 11:54:00;;;;;;;2.55;0.77;;;;;;;20.70;32.89;99931.25;5034501;28;20049;-80
2021/05/19 11:56:45;;;;;;;1.45;0.52;;;;;;;20.41;34.10;99944.03;5018671;28;20060;-81
2021/05/19 11:59:21;;;;;;;1.50;0.40;;;;;;;18.27;38.58;99940.94;5021029;28;20053;-80
2021/05/19 12:02:01;;;;;;;1.63;0.85;;;;;;;18.16;42.83;99941.28;5021212;28;20045;-80
2021/05/19 12:04:32;;;;;;;1.83;0.50;;;;;;;18.05;47.91;99943.44;5014224;28;20046;-79
2021/05/19 12:07:05;;;;;;;1.25;0.70;;;;;;;18.36;44.72;99940.59;5016129;28;20434;-79
2021/05/19 12:11:12;;;;;;;3.15;0.50;;;;;;;19.25;45.46;99943.50;5063916;27;20626;-80
2021/05/19 12:13:42;;;;;;;1.88;0.77;;;;;;;18.67;49.41;99937.75;5033631;28;20130;-80
2021/05/19 12:16:17;;;;;;;2.70;0.82;;;;;;;18.19;44.21;99940.31;5040844;28;22826;-79
2021/05/19 12:19:16;;;;;;;1.25;0.70;;;;;;;18.44;43.97;99940.31;5014785;28;20041;-79
2021/05/19 12:22:02;;;;;;;2.28;0.80;;;;;;;17.72;45.76;99932.19;5047276;28;20057;-81
2021/05/19 12:24:30;;;;;;;1.15;0.63;;;;;;;18.37;43.94;99938.84;5038556;28;20041;-79
2021/05/19 12:26:59;;;;;;;1.17;0.63;;;;;;;18.83;43.92;99933.63;5039530;28;20037;-80
2021/05/19 12:29:40;;;;;;;1.42;0.98;;;;;;;19.25;45.17;99927.59;5034156;28;20106;-81
2021/05/19 12:32:27;;;;;;;7.03;0.98;;;;;;;20.25;42.67;99942.06;5036097;28;20049;-80
2021/05/19 12:35:06;;;;;;;2.05;0.73;;;;;;;21.40;40.04;99944.81;5038443;28;20107;-80
2021/05/19 12:42:52;;;;;;;;;;;;;;;;;;;;;
2021/05/19 12:46:11;;;;;;;1.40;0.85;;;;;;;22.14;36.23;99933.19;4910824;28;20083;-80
2021/05/19 12:49:10;;;;;;;2.45;0.90;;;;;;;20.77;36.52;99936.22;4916928;28;20131;-85
2021/05/19 12:51:51;;;;;;;2.97;1.38;;;;;;;21.05;35.08;99929.66;4943241;28;20646;-82
2021/05/19 12:55:04;;;;;;;14.63;1.80;;;;;;;20.48;36.00;99925.19;4945465;28;20203;-86
2021/05/19 12:57:45;;;;;;;;;;;;;;;19.88;37.85;99922.41;4957485;28;20080;-83
2021/05/19 13:00:23;;;;;;;1.27;0.82;;;;;;;21.00;36.42;99927.22;4967993;28;19929;-81
2021/05/19 13:03:00;;;;;;;4.05;1.00;;;;;;;21.08;36.05;99930.38;4963059;28;20488;-80
2021/05/19 13:05:29;;;;;;;1.92;0.68;;;;;;;21.35;35.64;99941.50;4980985;28;20548;-82
2021/05/19 13:07:57;;;;;;;1.30;0.35;;;;;;;20.26;33.00;99943.78;4970800;28;20046;-86
2021/05/19 13:10:56;;;;;;;0.52;0.40;;;;;;;20.24;34.80;99948.31;4947691;28;20047;-83
2021/05/19 13:13:51;;;;;;;2.13;0.75;;;;;;;20.26;38.08;99957.06;4940720;28;20062;-82
2021/05/19 13:16:22;;;;;;;3.95;0.50;;;;;;;20.02;38.84;99961.59;4948070;28;20072;-81
2021/05/19 13:39:06;;;;;;;1.45;0.80;;;;;;;20.12;41.75;100001.88;5043008;28;20048;-81
2021/05/19 13:42:13;;;;;;;1.08;0.55;;;;;;;18.83;44.35;99988.34;4944015;28;20176;-81
2021/05/19 14:05:51;;;;;;;10.15;3.88;;;;;;;16.76;55.43;100018.69;6031321;22;3240862;-77
2021/05/19 14:08:30;;;;;;;5.43;1.00;;;;;;;15.88;57.68;100025.31;6190712;23;20016;-81
2021/05/19 14:11:30;;;;;;;4.47;1.00;;;;;;;15.61;59.53;100025.06;6081349;23;20619;-78
2021/05/19 14:27:22;;;;;;;3.83;0.90;;;;;;;15.72;57.00;100021.34;6103237;23;20031;-78
2021/05/19 14:29:59;;;;;;;8.95;1.15;;;;;;;15.83;57.75;100024.56;6185353;23;20518;-80
2021/05/19 14:32:39;;;;;;;4.53;0.93;;;;;;;16.51;56.79;100023.72;6084457;23;20035;-83
2021/05/19 15:00:13;;;;;;;3.58;0.88;;;;;;;20.73;43.38;100003.66;4909641;28;20158;-81
2021/05/19 15:02:55;;;;;;;2.63;1.00;;;;;;;20.95;41.42;100013.34;4942282;28;20074;-81
2021/05/19 15:06:27;;;;;;;1.75;0.73;;;;;;;20.77;42.15;100009.69;4905055;28;20506;-81
2021/05/19 15:09:39;;;;;;;2.85;0.88;;;;;;;20.56;43.74;100013.31;4896171;28;20061;-82
2021/05/19 15:27:01;;;;;;;3.80;1.07;;;;;;;20.85;42.21;100000.47;6177696;22;1842089;-84
2021/05/19 15:29:28;;;;;;;2.92;0.60;;;;;;;20.32;43.96;100007.25;6239844;23;20051;-87
2021/05/19 15:31:56;;;;;;;3.15;0.82;;;;;;;20.24;43.98;100012.00;6164042;23;20062;-83
2021/05/19 15:34:24;;;;;;;1.20;0.82;;;;;;;20.62;41.64;100010.38;6226867;22;20418;-82
2021/05/19 15:36:55;;;;;;;2.38;0.68;;;;;;;20.44;43.38;100012.03;6143439;23;20094;-83
2021/05/19 15:39:22;;;;;;;3.60;1.00;;;;;;;20.18;45.58;100006.94;6209394;23;20035;-84
2021/05/19 15:41:53;;;;;;;5.18;0.90;;;;;;;20.10;44.38;100003.72;6269054;22;20024;-82
2021/05/19 15:44:24;;;;;;;3.95;0.80;;;;;;;19.77;43.65;100004.16;6163590;23;20028;-85
2021/05/19 15:46:54;;;;;;;2.95;1.10;;;;;;;19.65;46.53;100003.78;6172528;22;20103;-80
2021/05/19 15:49:24;;;;;;;2.97;0.82;;;;;;;19.15;45.35;99999.47;6241819;22;20030;-82
2021/05/19 15:51:52;;;;;;;4.13;1.00;;;;;;;19.37;43.90;99996.03;6176866;22;20083;-82
2021/05/19 15:54:52;;;;;;;4.88;1.02;;;;;;;19.17;44.02;99986.19;6229303;22;20051;-81
2021/05/19 15:57:37;;;;;;;4.85;0.93;;;;;;;18.89;45.29;99993.44;6218303;22;20110;-81
2021/05/19 16:00:11;;;;;;;3.40;1.00;;;;;;;18.96;47.35;99992.28;6152253;23;20043;-85
2021/05/19 16:03:12;;;;;;;2.20;1.17;;;;;;;18.44;49.68;99998.53;6194930;23;20031;-87
2021/05/19 16:05:57;;;;;;;7.03;1.30;;;;;;;18.05;44.86;99991.03;6144417;23;20105;-81
2021/05/19 16:08:24;;;;;;;4.50;1.33;;;;;;;17.86;48.13;99998.69;6180909;23;20025;-82
2021/05/19 16:10:51;;;;;;;4.22;1.20;;;;;;;17.54;49.18;99988.25;6132261;23;20029;-87
2021/05/19 16:13:23;;;;;;;4.88;1.23;;;;;;;17.89;44.63;99992.44;6148130;23;20051;-89
2021/05/19 16:16:35;;;;;;;3.08;1.10;;;;;;;17.97;46.32;99994.84;6117285;23;20039;-86
2021/05/19 16:19:30;;;;;;;4.30;0.70;;;;;;;17.62;45.10;99988.03;6111175;23;20029;-83
2021/05/19 16:22:12;;;;;;;6.28;0.85;;;;;;;18.04;43.84;99988.41;6100688;23;20060;-87
2021/05/19 16:31:43;;;;;;;3.83;0.85;;;;;;;17.97;40.11;99982.50;4998030;28;20184;-81
2021/05/19 16:34:55;;;;;;;3.40;0.43;;;;;;;17.62;41.60;99999.47;4932285;28;20429;-81
2021/05/19 16:37:24;;;;;;;3.13;0.70;;;;;;;17.22;40.07;99977.78;4905353;28;20035;-82
2021/05/19 16:39:53;;;;;;;8.15;1.10;;;;;;;17.22;40.07;99983.06;4920096;28;20482;-82
2021/05/19 16:46:44;;;;;;;1.85;0.80;;;;;;;18.25;40.74;99983.28;4890783;28;20070;-82
2021/05/19 17:25:04;;;;;;;3.65;1.00;;;;;;;17.17;38.59;100003.47;6118619;22;1051480;-77
2021/05/19 17:28:01;;;;;;;2.55;0.85;;;;;;;17.60;38.17;100011.84;6083467;23;20147;-79
2021/05/19 17:31:11;;;;;;;5.57;1.27;;;;;;;17.17;38.25;100014.88;5906138;24;20130;-79
2021/05/19 18:20:03;;;;;;;1.30;1.02;;;;;;;16.02;38.89;100025.84;6116061;23;20588;-82
2021/05/19 18:22:31;;;;;;;8.82;1.60;;;;;;;16.49;40.42;100022.06;6123560;23;20016;-86
2021/05/19 18:29:59;;;;;;;9.00;0.90;;;;;;;16.71;39.40;100032.91;5822468;24;20086;-79
2021/05/19 18:41:18;;;;;;;;;;;;;;;16.02;39.55;100029.34;5962706;24;20063;-79
2021/05/19 18:43:46;;;;;;;7.60;1.52;;;;;;;15.83;41.76;100021.94;5917309;23;19930;-78
2021/05/19 18:46:20;;;;;;;5.13;1.27;;;;;;;15.95;42.15;100030.44;5900777;24;20237;-83
2021/05/19 18:48:49;;;;;;;3.85;0.80;;;;;;;15.43;41.44;100032.47;5910283;24;20052;-79
2021/05/19 18:51:19;;;;;;;4.05;0.80;;;;;;;15.74;41.71;100037.94;5902316;24;20414;-81
2021/05/19 18:54:05;;;;;;;7.28;1.48;;;;;;;15.81;40.40;100042.19;5916286;24;20085;-80
2021/05/19 18:56:35;;;;;;;4.60;0.90;;;;;;;15.84;42.13;100048.25;5843532;23;20082;-78
2021/05/19 18:59:04;;;;;;;4.35;0.80;;;;;;;16.04;41.08;100047.78;5835357;23;20036;-80
2021/05/19 19:05:37;;;;;;;2.42;0.70;;;;;;;15.64;41.07;100059.22;5939402;24;20087;-82
2021/05/19 19:08:06;;;;;;;3.55;0.80;;;;;;;15.40;41.93;100067.63;6029225;23;20037;-81
2021/05/19 19:10:34;;;;;;;4.20;0.80;;;;;;;14.99;42.23;100076.38;6057818;23;20373;-81
2021/05/19 19:13:01;;;;;;;2.15;0.90;;;;;;;15.18;42.86;100075.09;6069449;23;20049;-82
2021/05/19 19:15:29;;;;;;;4.72;1.00;;;;;;;15.09;43.54;100082.31;6075070;23;20027;-79
2021/05/19 19:17:57;;;;;;;3.72;0.70;;;;;;;15.25;43.21;100086.41;6026913;23;20031;-79
2021/05/19 19:20:24;;;;;;;2.80;0.93;;;;;;;14.68;44.07;100088.34;6040423;23;20034;-78
2021/05/19 19:22:52;;;;;;;2.95;1.02;;;;;;;15.19;43.45;100089.13;6021587;23;20054;-77
2021/05/19 20:12:17;;;;;;;;;;;;;;;13.21;50.77;100120.22;5424209;22;17932128;-76
2021/05/19 20:14:53;;;;;;;10.73;1.13;;;;;;;13.41;49.62;100127.88;6078495;23;19971;-77
2021/05/19 20:17:23;;;;;;;4.22;1.10;;;;;;;13.13;50.59;100122.06;6087879;23;20378;-76
2021/05/19 20:19:51;;;;;;;2.47;1.10;;;;;;;13.32;50.57;100127.97;6095378;23;20338;-77
2021/05/19 20:22:40;;;;;;;1.90;0.80;;;;;;;12.79;52.67;100131.13;6083077;23;20022;-76
2021/05/19 20:25:10;;;;;;;4.05;1.00;;;;;;;12.15;56.18;100122.03;6100661;23;20036;-78
2021/05/19 20:27:38;;;;;;;3.13;0.90;;;;;;;12.30;55.38;100131.53;6099674;23;20026;-75
2021/05/19 20:30:07;;;;;;;4.93;1.30;;;;;;;12.48;54.52;100123.53;6098176;23;20026;-79
2021/05/19 20:32:38;;;;;;;4.35;1.17;;;;;;;12.35;53.55;100129.75;6063110;23;20427;-77
2021/05/19 20:35:11;;;;;;;3.08;1.20;;;;;;;12.36;54.00;100136.75;6059076;23;20417;-80
2021/05/19 20:37:42;;;;;;;4.72;1.00;;;;;;;12.05;55.11;100133.47;6074640;23;20034;-78
2021/05/19 20:40:18;;;;;;;3.95;1.00;;;;;;;12.03;55.26;100127.38;6107227;23;20017;-78
2021/05/19 20:42:47;;;;;;;3.53;1.02;;;;;;;11.93;55.92;100125.69;6079433;23;20029;-76
2021/05/19 20:45:19;;;;;;;3.92;1.10;;;;;;;12.29;55.27;100131.53;6100399;23;20125;-77
2021/05/19 20:47:54;;;;;;;6.40;1.13;;;;;;;12.49;55.02;100129.66;6066507;23;20402;-80
2021/05/19 20:50:27;;;;;;;2.80;1.20;;;;;;;12.46;55.43;100134.91;6086529;23;20027;-81
2021/05/19 20:53:06;;;;;;;4.10;1.10;;;;;;;12.02;56.48;100130.88;6055626;23;20523;-78
2021/05/19 20:55:37;;;;;;;2.80;1.30;;;;;;;11.85;57.21;100127.47;6067173;23;20089;-77
2021/05/19 20:58:15;;;;;;;2.53;1.00;;;;;;;11.87;56.96;100125.72;6027268;23;20033;-75
2021/05/19 21:00:59;;;;;;;7.03;1.40;;;;;;;11.82;57.10;100126.63;5998473;23;20056;-77
2021/05/19 21:03:43;;;;;;;3.33;1.23;;;;;;;11.58;57.88;100127.56;6054961;23;20022;-77
2021/05/19 21:06:15;;;;;;;6.57;1.05;;;;;;;11.38;58.13;100138.13;6059317;23;20116;-77
2021/05/19 21:08:59;;;;;;;4.90;1.10;;;;;;;11.37;58.76;100132.00;6041158;23;20021;-75
2021/05/19 21:12:03;;;;;;;3.35;0.85;;;;;;;11.30;58.86;100125.09;5993198;23;20056;-80
2021/05/19 21:14:47;;;;;;;3.28;1.35;;;;;;;11.07;59.15;100120.81;6065255;23;20401;-76
2021/05/19 21:17:41;;;;;;;5.28;1.30;;;;;;;11.05;58.99;100122.53;6009599;23;20489;-77
2021/05/19 21:20:25;;;;;;;4.25;1.20;;;;;;;10.81;60.02;100120.84;6047906;23;20070;-78
2021/05/19 21:23:02;;;;;;;5.00;1.20;;;;;;;11.07;58.06;100113.84;6008373;23;20022;-78
2021/05/19 21:25:37;;;;;;;6.55;1.80;;;;;;;10.90;59.87;100106.00;6055089;23;20497;-81
2021/05/19 21:28:07;;;;;;;9.18;2.75;;;;;;;11.19;58.97;100113.78;6061912;23;20113;-76
2021/05/19 21:30:35;;;;;;;4.65;1.80;;;;;;;11.24;58.75;100116.38;6014009;23;20069;-76
2021/05/19 21:33:04;;;;;;;8.00;1.55;;;;;;;11.37;57.65;100115.44;6022326;23;20026;-77
2021/05/19 21:35:36;;;;;;;2.80;1.05;;;;;;;11.42;57.43;100123.28;6087632;23;20034;-76
2021/05/19 21:38:14;;;;;;;4.03;1.10;;;;;;;11.15;58.01;100116.41;6055596;23;20081;-76
2021/05/19 21:40:48;;;;;;;4.47;1.40;;;;;;;11.22;58.42;100119.00;6073626;23;20078;-76
2021/05/19 21:43:20;;;;;;;4.65;1.52;;;;;;;11.20;57.55;100123.38;6013990;23;20022;-77
2021/05/19 21:45:51;;;;;;;2.90;0.90;;;;;;;11.01;57.29;100123.41;6016121;23;20063;-76
2021/05/19 21:48:22;;;;;;;4.68;1.40;;;;;;;10.81;57.93;100132.16;6009447;23;20101;-76
2021/05/19 21:50:54;;;;;;;7.45;1.70;;;;;;;10.70;58.59;100139.13;6009239;23;20030;-76
2021/05/19 21:53:22;;;;;;;3.73;1.60;;;;;;;10.57;59.18;100139.16;6041025;23;20159;-76
2021/05/19 21:55:49;;;;;;;4.25;1.42;;;;;;;10.56;59.07;100140.91;6044834;23;20133;-75
2021/05/19 21:58:33;;;;;;;3.38;1.23;;;;;;;10.62;58.87;100142.63;5030353;28;20135;-77
2021/05/19 22:01:02;;;;;;;5.43;1.58;;;;;;;10.52;58.34;100141.78;4978642;28;20037;-76
2021/05/19 22:03:39;;;;;;;4.32;1.17;;;;;;;10.32;58.88;100143.50;4967185;28;20046;-76
2021/05/19 22:06:08;;;;;;;3.30;1.02;;;;;;;10.45;58.31;100143.50;4987596;28;20038;-76
2021/05/19 22:08:35;;;;;;;1.60;0.98;;;;;;;10.50;58.57;100152.22;5011804;28;20121;-78
2021/05/19 22:11:06;;;;;;;6.85;1.25;;;;;;;10.69;57.68;100147.00;4959962;28;20062;-76
2021/05/19 22:13:34;;;;;;;6.10;0.98;;;;;;;10.59;58.03;100145.25;5004819;28;20115;-77
2021/05/19 22:16:01;;;;;;;5.65;1.30;;;;;;;10.48;58.00;100150.47;4995332;28;20188;-78
2021/05/19 22:18:47;;;;;;;6.72;1.35;;;;;;;10.68;57.43;100150.47;4982194;28;20084;-76
2021/05/19 22:24:09;;;;;;;3.15;0.93;;;;;;;10.85;57.35;100138.25;5018355;28;20051;-78
2021/05/19 22:26:40;;;;;;;5.13;1.27;;;;;;;10.60;58.32;100137.41;5001286;28;20112;-76
2021/05/19 22:29:11;;;;;;;5.22;1.08;;;;;;;10.57;58.89;100134.81;4989690;28;20045;-76
2021/05/19 22:31:40;;;;;;;3.30;1.08;;;;;;;10.36;59.45;100133.06;5016134;28;20050;-78
2021/05/19 22:34:09;;;;;;;10.95;1.52;;;;;;;10.72;58.92;100136.53;4981346;28;20049;-76
2021/05/19 22:36:43;;;;;;;9.73;1.48;;;;;;;10.53;59.88;100130.47;5014979;28;20042;-78
2021/05/19 22:39:12;;;;;;;4.88;1.20;;;;;;;10.43;59.80;100129.59;4960070;28;21615;-78
2021/05/19 22:41:41;;;;;;;5.40;1.48;;;;;;;10.53;59.95;100121.75;4995433;28;20049;-78
2021/05/19 22:44:10;;;;;;;7.82;1.35;;;;;;;10.54;60.21;100131.34;4993361;28;20050;-77
2021/05/19 22:46:38;;;;;;;7.70;1.42;;;;;;;10.50;60.09;100125.25;4982871;28;20397;-77
2021/05/19 22:49:11;;;;;;;6.72;1.35;;;;;;;10.26;60.96;100120.00;5009166;28;20490;-75
2021/05/19 22:51:40;;;;;;;8.18;1.70;;;;;;;10.12;61.44;100124.31;4998141;28;20108;-76
2021/05/19 22:54:12;;;;;;;7.18;1.52;;;;;;;10.15;61.48;100116.47;5015574;28;20050;-76
2021/05/19 22:56:40;;;;;;;7.60;1.98;;;;;;;10.13;61.73;100118.19;4986777;28;20054;-77
2021/05/19 22:59:08;;;;;;;4.15;1.33;;;;;;;10.24;61.17;100114.78;4996260;28;21009;-77
2021/05/19 23:01:37;;;;;;;8.70;1.85;;;;;;;10.12;61.73;100116.50;5002372;28;20057;-77
2021/05/19 23:04:07;;;;;;;7.32;1.85;;;;;;;10.18;61.75;100120.00;4975663;28;20526;-76
2021/05/19 23:06:34;;;;;;;5.05;1.52;;;;;;;10.00;62.33;100119.94;5011219;28;20038;-76
2021/05/19 23:09:06;;;;;;;8.95;1.45;;;;;;;10.00;62.45;100112.09;5004893;28;20514;-77
2021/05/19 23:11:33;;;;;;;4.05;1.20;;;;;;;10.18;61.88;100111.28;4987041;28;20547;-76
2021/05/19 23:14:01;;;;;;;10.65;1.85;;;;;;;10.08;62.76;100112.97;4983202;28;20110;-78
2021/05/19 23:16:30;;;;;;;11.55;2.08;;;;;;;10.37;61.98;100121.75;4997840;28;20156;-79
2021/05/19 23:18:57;;;;;;;7.13;1.60;;;;;;;10.23;62.50;100105.19;4990760;28;20062;-76
2021/05/19 23:21:25;;;;;;;6.85;1.55;;;;;;;10.23;62.60;100104.31;4990576;28;20057;-76
2021/05/19 23:23:52;;;;;;;6.45;1.77;;;;;;;10.07;62.87;100101.66;4985170;28;20539;-77
2021/05/19 23:26:19;;;;;;;11.30;1.77;;;;;;;10.11;63.05;100105.16;5001459;28;20096;-77
2021/05/19 23:28:47;;;;;;;10.20;2.08;;;;;;;10.18;62.45;100100.84;4972747;28;20108;-76
2021/05/19 23:31:14;;;;;;;10.73;2.05;;;;;;;9.87;63.68;100089.47;4982676;28;20081;-78
2021/05/19 23:33:44;;;;;;;7.95;2.00;;;;;;;9.77;63.85;100098.16;5002043;28;20053;-78
2021/05/19 23:36:11;;;;;;;5.65;1.98;;;;;;;9.98;63.52;100104.25;4999636;28;20061;-77
2021/05/19 23:38:38;;;;;;;4.95;1.73;;;;;;;9.94;63.20;100097.31;5000278;28;20145;-77
2021/05/19 23:41:07;;;;;;;10.65;1.95;;;;;;;9.63;63.97;100082.47;4985431;28;20049;-77
2021/05/19 23:43:38;;;;;;;7.50;1.52;;;;;;;9.68;63.79;100082.47;5005752;28;20053;-76
2021/05/19 23:46:05;;;;;;;5.95;1.60;;;;;;;9.73;63.02;100085.97;4983761;28;20050;-76
2021/05/19 23:48:34;;;;;;;6.28;2.20;;;;;;;9.47;63.95;100084.16;4972403;28;20050;-77
2021/05/19 23:51:05;;;;;;;5.05;1.55;;;;;;;9.48;63.77;100085.03;4969452;28;20056;-76
2021/05/19 23:53:32;;;;;;;8.85;1.75;;;;;;;9.63;62.87;100085.06;4977569;28;20065;-76
2021/05/19 23:55:59;;;;;;;4.65;1.67;;;;;;;9.52;63.54;100079.81;4962518;28;20092;-76
2021/05/19 23:58:27;;;;;;;13.27;2.55;;;;;;;9.03;66.30;100086.56;5005344;28;20053;-76
